sensor_id;sensor_type;location;lat;lon;timestamp;P1;durP1;ratioP1;P2;durP2;ratioP2
32032;SDS011;31720;52.638;9.216;2023-05-07T00:02:47;11.13;;;6.15;;
32032;SDS011;31720;52.638;9.216;2023-05-07T00:05:48;12.80;;;6.50;;
32032;SDS011;31720;52.638;9.216;2023-05-07T00:08:50;13.68;;;6.97;;
32032;SDS011;31720;52.638;9.216;2023-05-07T00:11:51;13.40;;;7.35;;
32032;SDS011;31720;52.638;9.216;2023-05-07T00:14:54;16.83;;;6.60;;
32032;SDS011;31720;52.638;9.216;2023-05-07T00:17:55;18.48;;;6.93;;
32032;SDS011;31720;52.638;9.216;2023-05-07T00:20:57;13.15;;;6.57;;
32032;SDS011;31720;52.638;9.216;2023-05-07T00:23:59;15.80;;;6.70;;
32032;SDS011;31720;52.638;9.216;2023-05-07T00:27:00;13.95;;;6.55;;
32032;SDS011;31720;52.638;9.216;2023-05-07T00:30:03;11.52;;;6.53;;
32032;SDS011;31720;52.638;9.216;2023-05-07T00:33:05;14.70;;;6.95;;
32032;SDS011;31720;52.638;9.216;2023-05-07T00:36:06;19.63;;;7.78;;
32032;SDS011;31720;52.638;9.216;2023-05-07T00:39:08;12.95;;;7.07;;
32032;SDS011;31720;52.638;9.216;2023-05-07T00:42:09;14.75;;;7.30;;
32032;SDS011;31720;52.638;9.216;2023-05-07T00:45:12;15.43;;;7.32;;
32032;SDS011;31720;52.638;9.216;2023-05-07T00:48:13;13.38;;;6.72;;
32032;SDS011;31720;52.638;9.216;2023-05-07T00:51:15;18.05;;;7.88;;
32032;SDS011;31720;52.638;9.216;2023-05-07T00:54:17;11.68;;;6.93;;
32032;SDS011;31720;52.638;9.216;2023-05-07T00:57:19;16.65;;;7.65;;
32032;SDS011;31720;52.638;9.216;2023-05-07T01:00:23;13.75;;;6.90;;
32032;SDS011;31720;52.638;9.216;2023-05-07T01:03:25;12.13;;;6.53;;
32032;SDS011;31720;52.638;9.216;2023-05-07T01:06:26;13.32;;;6.72;;
32032;SDS011;31720;52.638;9.216;2023-05-07T01:09:30;14.40;;;7.38;;
32032;SDS011;31720;52.638;9.216;2023-05-07T01:12:32;12.75;;;6.80;;
32032;SDS011;31720;52.638;9.216;2023-05-07T01:15:35;14.18;;;7.53;;
32032;SDS011;31720;52.638;9.216;2023-05-07T01:18:37;15.30;;;7.63;;
32032;SDS011;31720;52.638;9.216;2023-05-07T01:21:39;16.60;;;7.07;;
32032;SDS011;31720;52.638;9.216;2023-05-07T01:24:48;12.18;;;7.35;;
32032;SDS011;31720;52.638;9.216;2023-05-07T01:27:50;14.98;;;7.40;;
32032;SDS011;31720;52.638;9.216;2023-05-07T01:30:54;15.93;;;8.00;;
32032;SDS011;31720;52.638;9.216;2023-05-07T01:33:59;14.75;;;7.68;;
32032;SDS011;31720;52.638;9.216;2023-05-07T01:37:02;14.35;;;7.53;;
32032;SDS011;31720;52.638;9.216;2023-05-07T01:40:05;15.50;;;6.97;;
32032;SDS011;31720;52.638;9.216;2023-05-07T01:43:08;17.05;;;7.25;;
32032;SDS011;31720;52.638;9.216;2023-05-07T01:46:11;12.40;;;7.07;;
32032;SDS011;31720;52.638;9.216;2023-05-07T01:49:13;13.30;;;7.00;;
32032;SDS011;31720;52.638;9.216;2023-05-07T01:52:15;14.65;;;7.07;;
32032;SDS011;31720;52.638;9.216;2023-05-07T01:55:18;15.35;;;8.10;;
32032;SDS011;31720;52.638;9.216;2023-05-07T01:58:19;14.55;;;6.93;;
32032;SDS011;31720;52.638;9.216;2023-05-07T02:01:21;15.93;;;7.82;;
32032;SDS011;31720;52.638;9.216;2023-05-07T02:04:22;14.32;;;8.02;;
32032;SDS011;31720;52.638;9.216;2023-05-07T02:07:24;14.85;;;7.13;;
32032;SDS011;31720;52.638;9.216;2023-05-07T02:10:27;12.85;;;7.28;;
32032;SDS011;31720;52.638;9.216;2023-05-07T02:13:29;13.18;;;6.80;;
32032;SDS011;31720;52.638;9.216;2023-05-07T02:16:34;15.52;;;7.68;;
32032;SDS011;31720;52.638;9.216;2023-05-07T02:19:35;14.43;;;7.15;;
32032;SDS011;31720;52.638;9.216;2023-05-07T02:22:36;15.82;;;7.15;;
32032;SDS011;31720;52.638;9.216;2023-05-07T02:25:39;14.45;;;7.47;;
32032;SDS011;31720;52.638;9.216;2023-05-07T02:28:41;14.70;;;7.13;;
32032;SDS011;31720;52.638;9.216;2023-05-07T02:31:42;17.90;;;7.78;;
32032;SDS011;31720;52.638;9.216;2023-05-07T02:34:43;17.30;;;7.45;;
32032;SDS011;31720;52.638;9.216;2023-05-07T02:37:45;16.63;;;7.40;;
32032;SDS011;31720;52.638;9.216;2023-05-07T02:40:47;14.38;;;7.10;;
32032;SDS011;31720;52.638;9.216;2023-05-07T02:43:49;14.77;;;7.65;;
32032;SDS011;31720;52.638;9.216;2023-05-07T02:46:50;15.23;;;7.63;;
32032;SDS011;31720;52.638;9.216;2023-05-07T02:49:51;20.23;;;7.32;;
32032;SDS011;31720;52.638;9.216;2023-05-07T02:52:53;12.73;;;6.47;;
32032;SDS011;31720;52.638;9.216;2023-05-07T02:55:56;15.68;;;7.07;;
32032;SDS011;31720;52.638;9.216;2023-05-07T02:58:58;17.80;;;7.15;;
32032;SDS011;31720;52.638;9.216;2023-05-07T03:02:00;16.33;;;7.25;;
32032;SDS011;31720;52.638;9.216;2023-05-07T03:05:01;15.82;;;7.72;;
32032;SDS011;31720;52.638;9.216;2023-05-07T03:08:03;13.82;;;6.93;;
32032;SDS011;31720;52.638;9.216;2023-05-07T03:11:06;18.20;;;7.65;;
32032;SDS011;31720;52.638;9.216;2023-05-07T03:14:08;19.48;;;7.90;;
32032;SDS011;31720;52.638;9.216;2023-05-07T03:17:09;19.55;;;8.55;;
32032;SDS011;31720;52.638;9.216;2023-05-07T03:20:12;20.25;;;9.40;;
32032;SDS011;31720;52.638;9.216;2023-05-07T03:23:13;21.73;;;8.50;;
32032;SDS011;31720;52.638;9.216;2023-05-07T03:26:16;16.05;;;8.02;;
32032;SDS011;31720;52.638;9.216;2023-05-07T03:29:17;19.77;;;8.60;;
32032;SDS011;31720;52.638;9.216;2023-05-07T03:32:18;21.77;;;9.57;;
32032;SDS011;31720;52.638;9.216;2023-05-07T03:35:20;19.67;;;8.55;;
32032;SDS011;31720;52.638;9.216;2023-05-07T03:38:21;20.02;;;9.77;;
32032;SDS011;31720;52.638;9.216;2023-05-07T03:41:24;20.40;;;9.57;;
32032;SDS011;31720;52.638;9.216;2023-05-07T03:44:25;19.92;;;8.57;;
32032;SDS011;31720;52.638;9.216;2023-05-07T03:47:27;21.38;;;8.20;;
32032;SDS011;31720;52.638;9.216;2023-05-07T03:50:28;14.65;;;7.43;;
32032;SDS011;31720;52.638;9.216;2023-05-07T03:53:30;17.40;;;8.13;;
32032;SDS011;31720;52.638;9.216;2023-05-07T03:56:32;18.70;;;8.13;;
32032;SDS011;31720;52.638;9.216;2023-05-07T03:59:34;12.80;;;6.65;;
32032;SDS011;31720;52.638;9.216;2023-05-07T04:02:35;13.85;;;7.10;;
32032;SDS011;31720;52.638;9.216;2023-05-07T04:05:36;17.80;;;7.63;;
32032;SDS011;31720;52.638;9.216;2023-05-07T04:08:38;13.18;;;6.72;;
32032;SDS011;31720;52.638;9.216;2023-05-07T04:11:40;20.90;;;7.10;;
32032;SDS011;31720;52.638;9.216;2023-05-07T04:14:42;14.93;;;7.03;;
32032;SDS011;31720;52.638;9.216;2023-05-07T04:17:43;14.00;;;7.07;;
32032;SDS011;31720;52.638;9.216;2023-05-07T04:20:45;14.18;;;6.43;;
32032;SDS011;31720;52.638;9.216;2023-05-07T04:23:46;12.65;;;6.35;;
32032;SDS011;31720;52.638;9.216;2023-05-07T04:26:49;14.57;;;6.40;;
32032;SDS011;31720;52.638;9.216;2023-05-07T04:29:51;12.60;;;5.93;;
32032;SDS011;31720;52.638;9.216;2023-05-07T04:32:55;15.13;;;6.30;;
32032;SDS011;31720;52.638;9.216;2023-05-07T04:35:57;11.75;;;5.80;;
32032;SDS011;31720;52.638;9.216;2023-05-07T04:39:02;11.68;;;5.22;;
32032;SDS011;31720;52.638;9.216;2023-05-07T04:42:05;10.30;;;5.40;;
32032;SDS011;31720;52.638;9.216;2023-05-07T04:45:09;11.13;;;5.35;;
32032;SDS011;31720;52.638;9.216;2023-05-07T04:48:12;10.40;;;5.30;;
32032;SDS011;31720;52.638;9.216;2023-05-07T04:51:14;11.07;;;6.45;;
32032;SDS011;31720;52.638;9.216;2023-05-07T04:54:16;15.52;;;7.22;;
32032;SDS011;31720;52.638;9.216;2023-05-07T04:57:18;12.55;;;6.10;;
32032;SDS011;31720;52.638;9.216;2023-05-07T05:00:20;9.25;;;5.10;;
32032;SDS011;31720;52.638;9.216;2023-05-07T05:03:21;12.15;;;5.82;;
32032;SDS011;31720;52.638;9.216;2023-05-07T05:06:23;11.18;;;5.28;;
32032;SDS011;31720;52.638;9.216;2023-05-07T05:09:24;11.73;;;5.88;;
32032;SDS011;31720;52.638;9.216;2023-05-07T05:12:27;13.23;;;6.13;;
32032;SDS011;31720;52.638;9.216;2023-05-07T05:15:28;9.75;;;4.95;;
32032;SDS011;31720;52.638;9.216;2023-05-07T05:18:30;10.07;;;4.85;;
32032;SDS011;31720;52.638;9.216;2023-05-07T05:21:31;13.18;;;5.80;;
32032;SDS011;31720;52.638;9.216;2023-05-07T05:24:32;9.27;;;5.32;;
32032;SDS011;31720;52.638;9.216;2023-05-07T05:27:35;7.90;;;4.88;;
32032;SDS011;31720;52.638;9.216;2023-05-07T05:30:36;10.68;;;5.72;;
32032;SDS011;31720;52.638;9.216;2023-05-07T05:33:38;9.75;;;4.82;;
32032;SDS011;31720;52.638;9.216;2023-05-07T05:36:39;11.38;;;4.78;;
32032;SDS011;31720;52.638;9.216;2023-05-07T05:39:41;8.95;;;4.72;;
32032;SDS011;31720;52.638;9.216;2023-05-07T05:42:44;8.50;;;4.47;;
32032;SDS011;31720;52.638;9.216;2023-05-07T05:45:45;11.07;;;5.03;;
32032;SDS011;31720;52.638;9.216;2023-05-07T05:48:46;13.48;;;6.20;;
32032;SDS011;31720;52.638;9.216;2023-05-07T05:51:48;10.18;;;5.53;;
32032;SDS011;31720;52.638;9.216;2023-05-07T05:54:49;12.45;;;5.50;;
32032;SDS011;31720;52.638;9.216;2023-05-07T05:57:52;10.10;;;5.25;;
32032;SDS011;31720;52.638;9.216;2023-05-07T06:00:53;10.00;;;5.10;;
32032;SDS011;31720;52.638;9.216;2023-05-07T06:03:55;11.98;;;4.72;;
32032;SDS011;31720;52.638;9.216;2023-05-07T06:06:57;8.38;;;4.75;;
32032;SDS011;31720;52.638;9.216;2023-05-07T06:09:58;10.23;;;4.97;;
32032;SDS011;31720;52.638;9.216;2023-05-07T06:13:01;8.85;;;4.63;;
32032;SDS011;31720;52.638;9.216;2023-05-07T06:16:02;11.63;;;5.80;;
32032;SDS011;31720;52.638;9.216;2023-05-07T06:19:04;10.85;;;5.72;;
32032;SDS011;31720;52.638;9.216;2023-05-07T06:22:05;12.60;;;5.60;;
32032;SDS011;31720;52.638;9.216;2023-05-07T06:25:07;8.73;;;4.95;;
32032;SDS011;31720;52.638;9.216;2023-05-07T06:28:10;10.93;;;6.05;;
32032;SDS011;31720;52.638;9.216;2023-05-07T06:31:12;8.52;;;5.20;;
32032;SDS011;31720;52.638;9.216;2023-05-07T06:34:14;12.30;;;5.97;;
32032;SDS011;31720;52.638;9.216;2023-05-07T06:37:15;10.15;;;5.20;;
32032;SDS011;31720;52.638;9.216;2023-05-07T06:40:17;9.70;;;5.47;;
32032;SDS011;31720;52.638;9.216;2023-05-07T06:43:19;9.27;;;5.25;;
32032;SDS011;31720;52.638;9.216;2023-05-07T06:46:21;7.95;;;4.72;;
32032;SDS011;31720;52.638;9.216;2023-05-07T06:49:22;11.65;;;5.10;;
32032;SDS011;31720;52.638;9.216;2023-05-07T06:52:23;10.52;;;5.05;;
32032;SDS011;31720;52.638;9.216;2023-05-07T06:55:25;11.52;;;5.30;;
32032;SDS011;31720;52.638;9.216;2023-05-07T06:58:27;11.20;;;4.93;;
32032;SDS011;31720;52.638;9.216;2023-05-07T07:01:29;8.07;;;4.60;;
32032;SDS011;31720;52.638;9.216;2023-05-07T07:04:30;10.75;;;5.40;;
32032;SDS011;31720;52.638;9.216;2023-05-07T07:07:32;8.38;;;4.90;;
32032;SDS011;31720;52.638;9.216;2023-05-07T07:10:33;6.68;;;4.50;;
32032;SDS011;31720;52.638;9.216;2023-05-07T07:13:36;7.90;;;4.40;;
32032;SDS011;31720;52.638;9.216;2023-05-07T07:16:37;5.85;;;3.95;;
32032;SDS011;31720;52.638;9.216;2023-05-07T07:19:38;7.95;;;4.85;;
32032;SDS011;31720;52.638;9.216;2023-05-07T07:22:40;6.43;;;3.75;;
32032;SDS011;31720;52.638;9.216;2023-05-07T07:25:41;8.30;;;4.93;;
32032;SDS011;31720;52.638;9.216;2023-05-07T07:28:44;7.20;;;4.00;;
32032;SDS011;31720;52.638;9.216;2023-05-07T07:31:47;7.95;;;4.55;;
32032;SDS011;31720;52.638;9.216;2023-05-07T07:34:49;6.88;;;4.47;;
32032;SDS011;31720;52.638;9.216;2023-05-07T07:37:50;7.22;;;4.57;;
32032;SDS011;31720;52.638;9.216;2023-05-07T07:40:51;5.50;;;3.92;;
32032;SDS011;31720;52.638;9.216;2023-05-07T07:43:54;9.52;;;4.25;;
32032;SDS011;31720;52.638;9.216;2023-05-07T07:46:55;6.95;;;3.90;;
32032;SDS011;31720;52.638;9.216;2023-05-07T07:49:57;7.57;;;4.50;;
32032;SDS011;31720;52.638;9.216;2023-05-07T07:52:58;14.68;;;4.80;;
32032;SDS011;31720;52.638;9.216;2023-05-07T07:56:00;5.47;;;3.70;;
32032;SDS011;31720;52.638;9.216;2023-05-07T07:59:03;10.77;;;3.95;;
32032;SDS011;31720;52.638;9.216;2023-05-07T08:02:04;6.28;;;3.70;;
32032;SDS011;31720;52.638;9.216;2023-05-07T08:05:05;7.30;;;4.07;;
32032;SDS011;31720;52.638;9.216;2023-05-07T08:08:07;8.40;;;4.47;;
32032;SDS011;31720;52.638;9.216;2023-05-07T08:11:09;6.00;;;3.80;;
32032;SDS011;31720;52.638;9.216;2023-05-07T08:14:12;6.03;;;4.00;;
32032;SDS011;31720;52.638;9.216;2023-05-07T08:17:15;7.18;;;3.78;;
32032;SDS011;31720;52.638;9.216;2023-05-07T08:20:17;5.40;;;3.58;;
32032;SDS011;31720;52.638;9.216;2023-05-07T08:23:18;6.80;;;4.10;;
32032;SDS011;31720;52.638;9.216;2023-05-07T08:26:19;8.02;;;4.20;;
32032;SDS011;31720;52.638;9.216;2023-05-07T08:29:22;8.02;;;4.32;;
32032;SDS011;31720;52.638;9.216;2023-05-07T08:32:23;9.30;;;4.25;;
32032;SDS011;31720;52.638;9.216;2023-05-07T08:35:25;6.55;;;4.25;;
32032;SDS011;31720;52.638;9.216;2023-05-07T08:38:26;7.30;;;4.63;;
32032;SDS011;31720;52.638;9.216;2023-05-07T08:41:28;6.88;;;4.57;;
32032;SDS011;31720;52.638;9.216;2023-05-07T08:44:32;6.00;;;3.95;;
32032;SDS011;31720;52.638;9.216;2023-05-07T08:47:40;9.57;;;5.07;;
32032;SDS011;31720;52.638;9.216;2023-05-07T08:50:45;8.15;;;4.18;;
32032;SDS011;31720;52.638;9.216;2023-05-07T08:53:47;7.70;;;4.88;;
32032;SDS011;31720;52.638;9.216;2023-05-07T08:56:49;8.68;;;5.15;;
32032;SDS011;31720;52.638;9.216;2023-05-07T08:59:52;10.73;;;5.75;;
32032;SDS011;31720;52.638;9.216;2023-05-07T09:02:53;9.57;;;5.57;;
32032;SDS011;31720;52.638;9.216;2023-05-07T09:05:55;11.23;;;6.22;;
32032;SDS011;31720;52.638;9.216;2023-05-07T09:08:56;8.90;;;4.72;;
32032;SDS011;31720;52.638;9.216;2023-05-07T09:11:58;8.90;;;5.55;;
32032;SDS011;31720;52.638;9.216;2023-05-07T09:15:01;8.38;;;5.00;;
32032;SDS011;31720;52.638;9.216;2023-05-07T09:18:02;9.68;;;5.88;;
32032;SDS011;31720;52.638;9.216;2023-05-07T09:21:04;8.40;;;4.57;;
32032;SDS011;31720;52.638;9.216;2023-05-07T09:24:05;11.75;;;5.57;;
32032;SDS011;31720;52.638;9.216;2023-05-07T09:27:07;8.90;;;5.40;;
32032;SDS011;31720;52.638;9.216;2023-05-07T09:30:12;10.77;;;5.80;;
32032;SDS011;31720;52.638;9.216;2023-05-07T09:33:14;10.60;;;5.63;;
32032;SDS011;31720;52.638;9.216;2023-05-07T09:36:15;9.60;;;5.47;;
32032;SDS011;31720;52.638;9.216;2023-05-07T09:39:17;8.25;;;5.00;;
32032;SDS011;31720;52.638;9.216;2023-05-07T09:42:22;10.93;;;5.78;;
32032;SDS011;31720;52.638;9.216;2023-05-07T09:45:26;8.18;;;4.93;;
32032;SDS011;31720;52.638;9.216;2023-05-07T09:48:27;9.35;;;5.18;;
32032;SDS011;31720;52.638;9.216;2023-05-07T09:51:30;9.23;;;4.80;;
32032;SDS011;31720;52.638;9.216;2023-05-07T09:54:39;7.68;;;4.95;;
32032;SDS011;31720;52.638;9.216;2023-05-07T09:57:42;9.13;;;5.63;;
32032;SDS011;31720;52.638;9.216;2023-05-07T10:00:47;8.77;;;4.88;;
32032;SDS011;31720;52.638;9.216;2023-05-07T10:03:50;9.27;;;4.65;;
32032;SDS011;31720;52.638;9.216;2023-05-07T10:06:53;7.80;;;4.68;;
32032;SDS011;31720;52.638;9.216;2023-05-07T10:09:55;7.75;;;5.30;;
32032;SDS011;31720;52.638;9.216;2023-05-07T10:12:59;7.65;;;4.82;;
32032;SDS011;31720;52.638;9.216;2023-05-07T10:16:02;7.10;;;4.15;;
32032;SDS011;31720;52.638;9.216;2023-05-07T10:19:05;9.65;;;4.90;;
32032;SDS011;31720;52.638;9.216;2023-05-07T10:22:09;8.15;;;4.65;;
32032;SDS011;31720;52.638;9.216;2023-05-07T10:25:14;6.93;;;4.30;;
32032;SDS011;31720;52.638;9.216;2023-05-07T10:28:17;6.80;;;4.43;;
32032;SDS011;31720;52.638;9.216;2023-05-07T10:31:32;6.88;;;4.05;;
32032;SDS011;31720;52.638;9.216;2023-05-07T10:34:48;9.20;;;4.90;;
32032;SDS011;31720;52.638;9.216;2023-05-07T10:37:54;8.05;;;4.60;;
32032;SDS011;31720;52.638;9.216;2023-05-07T10:40:55;7.43;;;4.32;;
32032;SDS011;31720;52.638;9.216;2023-05-07T10:43:57;7.07;;;4.05;;
32032;SDS011;31720;52.638;9.216;2023-05-07T10:47:06;8.55;;;4.35;;
32032;SDS011;31720;52.638;9.216;2023-05-07T10:50:21;9.05;;;4.80;;
32032;SDS011;31720;52.638;9.216;2023-05-07T10:53:24;8.20;;;4.53;;
32032;SDS011;31720;52.638;9.216;2023-05-07T10:56:28;6.88;;;4.43;;
32032;SDS011;31720;52.638;9.216;2023-05-07T10:59:30;7.57;;;4.78;;
32032;SDS011;31720;52.638;9.216;2023-05-07T11:06:08;8.35;;;5.28;;
32032;SDS011;31720;52.638;9.216;2023-05-07T11:09:11;7.50;;;3.88;;
32032;SDS011;31720;52.638;9.216;2023-05-07T11:12:12;7.28;;;4.20;;
32032;SDS011;31720;52.638;9.216;2023-05-07T11:15:14;9.98;;;3.75;;
32032;SDS011;31720;52.638;9.216;2023-05-07T11:18:17;9.98;;;4.95;;
32032;SDS011;31720;52.638;9.216;2023-05-07T11:21:32;5.60;;;3.45;;
32032;SDS011;31720;52.638;9.216;2023-05-07T11:24:37;5.57;;;3.95;;
32032;SDS011;31720;52.638;9.216;2023-05-07T11:27:40;8.23;;;5.05;;
32032;SDS011;31720;52.638;9.216;2023-05-07T11:30:42;6.88;;;4.75;;
32032;SDS011;31720;52.638;9.216;2023-05-07T11:33:46;11.25;;;6.18;;
32032;SDS011;31720;52.638;9.216;2023-05-07T11:36:47;8.85;;;5.35;;
32032;SDS011;31720;52.638;9.216;2023-05-07T11:39:50;8.77;;;5.63;;
32032;SDS011;31720;52.638;9.216;2023-05-07T11:42:54;10.10;;;5.60;;
32032;SDS011;31720;52.638;9.216;2023-05-07T11:46:04;9.60;;;5.55;;
32032;SDS011;31720;52.638;9.216;2023-05-07T11:49:07;9.13;;;5.70;;
32032;SDS011;31720;52.638;9.216;2023-05-07T11:52:09;9.02;;;5.38;;
32032;SDS011;31720;52.638;9.216;2023-05-07T11:55:11;9.45;;;6.13;;
32032;SDS011;31720;52.638;9.216;2023-05-07T11:58:12;9.38;;;5.68;;
32032;SDS011;31720;52.638;9.216;2023-05-07T12:01:21;8.88;;;5.20;;
32032;SDS011;31720;52.638;9.216;2023-05-07T12:04:23;11.93;;;5.70;;
32032;SDS011;31720;52.638;9.216;2023-05-07T12:07:25;10.68;;;4.70;;
32032;SDS011;31720;52.638;9.216;2023-05-07T12:10:26;11.77;;;5.20;;
32032;SDS011;31720;52.638;9.216;2023-05-07T12:13:27;8.60;;;5.30;;
32032;SDS011;31720;52.638;9.216;2023-05-07T12:16:29;10.48;;;4.88;;
32032;SDS011;31720;52.638;9.216;2023-05-07T12:19:32;8.90;;;5.57;;
32032;SDS011;31720;52.638;9.216;2023-05-07T12:22:35;7.93;;;4.93;;
32032;SDS011;31720;52.638;9.216;2023-05-07T12:25:37;6.22;;;4.10;;
32032;SDS011;31720;52.638;9.216;2023-05-07T12:28:39;7.00;;;3.88;;
32032;SDS011;31720;52.638;9.216;2023-05-07T12:31:41;6.40;;;4.40;;
32032;SDS011;31720;52.638;9.216;2023-05-07T12:34:44;8.23;;;4.60;;
32032;SDS011;31720;52.638;9.216;2023-05-07T12:37:54;6.70;;;4.05;;
32032;SDS011;31720;52.638;9.216;2023-05-07T12:40:55;9.02;;;4.30;;
32032;SDS011;31720;52.638;9.216;2023-05-07T12:43:57;6.53;;;3.92;;
32032;SDS011;31720;52.638;9.216;2023-05-07T12:46:58;6.25;;;3.97;;
32032;SDS011;31720;52.638;9.216;2023-05-07T12:50:06;6.22;;;3.65;;
32032;SDS011;31720;52.638;9.216;2023-05-07T12:53:08;6.95;;;3.30;;
32032;SDS011;31720;52.638;9.216;2023-05-07T12:56:12;7.22;;;3.55;;
32032;SDS011;31720;52.638;9.216;2023-05-07T12:59:16;5.07;;;3.33;;
32032;SDS011;31720;52.638;9.216;2023-05-07T13:02:18;5.78;;;3.80;;
32032;SDS011;31720;52.638;9.216;2023-05-07T13:05:21;5.65;;;3.30;;
32032;SDS011;31720;52.638;9.216;2023-05-07T13:08:26;5.20;;;3.15;;
32032;SDS011;31720;52.638;9.216;2023-05-07T13:11:28;5.05;;;3.33;;
32032;SDS011;31720;52.638;9.216;2023-05-07T13:14:29;6.22;;;3.25;;
32032;SDS011;31720;52.638;9.216;2023-05-07T13:17:31;5.20;;;3.33;;
32032;SDS011;31720;52.638;9.216;2023-05-07T13:20:33;4.97;;;3.13;;
32032;SDS011;31720;52.638;9.216;2023-05-07T13:23:35;4.80;;;3.00;;
32032;SDS011;31720;52.638;9.216;2023-05-07T13:26:38;5.95;;;3.38;;
32032;SDS011;31720;52.638;9.216;2023-05-07T13:29:39;4.25;;;3.17;;
32032;SDS011;31720;52.638;9.216;2023-05-07T13:32:41;6.05;;;3.05;;
32032;SDS011;31720;52.638;9.216;2023-05-07T13:35:43;3.42;;;2.70;;
32032;SDS011;31720;52.638;9.216;2023-05-07T13:38:45;7.65;;;3.00;;
32032;SDS011;31720;52.638;9.216;2023-05-07T13:41:47;5.82;;;2.92;;
32032;SDS011;31720;52.638;9.216;2023-05-07T13:44:48;5.38;;;3.05;;
32032;SDS011;31720;52.638;9.216;2023-05-07T13:47:49;3.90;;;2.58;;
32032;SDS011;31720;52.638;9.216;2023-05-07T13:50:52;2.90;;;2.05;;
32032;SDS011;31720;52.638;9.216;2023-05-07T13:53:53;4.70;;;2.88;;
32032;SDS011;31720;52.638;9.216;2023-05-07T13:56:55;3.83;;;2.22;;
32032;SDS011;31720;52.638;9.216;2023-05-07T13:59:56;4.43;;;2.42;;
32032;SDS011;31720;52.638;9.216;2023-05-07T14:02:57;3.83;;;2.63;;
32032;SDS011;31720;52.638;9.216;2023-05-07T14:06:00;3.72;;;2.28;;
32032;SDS011;31720;52.638;9.216;2023-05-07T14:09:01;5.10;;;2.20;;
32032;SDS011;31720;52.638;9.216;2023-05-07T14:12:04;5.20;;;2.70;;
32032;SDS011;31720;52.638;9.216;2023-05-07T14:15:06;4.38;;;2.45;;
32032;SDS011;31720;52.638;9.216;2023-05-07T14:18:08;3.63;;;2.47;;
32032;SDS011;31720;52.638;9.216;2023-05-07T14:21:11;4.72;;;2.53;;
32032;SDS011;31720;52.638;9.216;2023-05-07T14:24:13;3.50;;;2.10;;
32032;SDS011;31720;52.638;9.216;2023-05-07T14:27:14;3.50;;;2.60;;
32032;SDS011;31720;52.638;9.216;2023-05-07T14:30:16;3.70;;;2.70;;
32032;SDS011;31720;52.638;9.216;2023-05-07T14:33:17;4.10;;;2.60;;
32032;SDS011;31720;52.638;9.216;2023-05-07T14:36:20;3.92;;;2.50;;
32032;SDS011;31720;52.638;9.216;2023-05-07T14:39:22;5.80;;;2.65;;
32032;SDS011;31720;52.638;9.216;2023-05-07T14:42:24;3.75;;;2.53;;
32032;SDS011;31720;52.638;9.216;2023-05-07T14:45:25;3.63;;;2.35;;
32032;SDS011;31720;52.638;9.216;2023-05-07T14:48:26;7.10;;;2.50;;
32032;SDS011;31720;52.638;9.216;2023-05-07T14:51:29;7.45;;;3.38;;
32032;SDS011;31720;52.638;9.216;2023-05-07T14:54:30;5.28;;;3.28;;
32032;SDS011;31720;52.638;9.216;2023-05-07T14:57:34;4.82;;;2.70;;
32032;SDS011;31720;52.638;9.216;2023-05-07T15:00:36;8.32;;;3.20;;
32032;SDS011;31720;52.638;9.216;2023-05-07T15:03:37;4.70;;;3.08;;
32032;SDS011;31720;52.638;9.216;2023-05-07T15:06:40;4.32;;;2.63;;
32032;SDS011;31720;52.638;9.216;2023-05-07T15:09:42;5.70;;;3.00;;
32032;SDS011;31720;52.638;9.216;2023-05-07T15:12:44;5.75;;;3.53;;
32032;SDS011;31720;52.638;9.216;2023-05-07T15:15:45;4.20;;;2.60;;
32032;SDS011;31720;52.638;9.216;2023-05-07T15:18:46;4.38;;;2.58;;
32032;SDS011;31720;52.638;9.216;2023-05-07T15:21:49;3.33;;;2.70;;
32032;SDS011;31720;52.638;9.216;2023-05-07T15:24:50;3.55;;;2.47;;
32032;SDS011;31720;52.638;9.216;2023-05-07T15:27:52;3.55;;;2.60;;
32032;SDS011;31720;52.638;9.216;2023-05-07T15:30:53;3.25;;;2.33;;
32032;SDS011;31720;52.638;9.216;2023-05-07T15:33:55;4.90;;;2.60;;
32032;SDS011;31720;52.638;9.216;2023-05-07T15:36:57;5.68;;;2.72;;
32032;SDS011;31720;52.638;9.216;2023-05-07T15:39:59;4.32;;;2.63;;
32032;SDS011;31720;52.638;9.216;2023-05-07T15:43:02;3.67;;;2.45;;
32032;SDS011;31720;52.638;9.216;2023-05-07T15:46:03;3.83;;;2.60;;
32032;SDS011;31720;52.638;9.216;2023-05-07T15:49:05;3.75;;;2.20;;
32032;SDS011;31720;52.638;9.216;2023-05-07T15:52:08;2.92;;;1.83;;
32032;SDS011;31720;52.638;9.216;2023-05-07T15:55:11;4.65;;;2.90;;
32032;SDS011;31720;52.638;9.216;2023-05-07T15:58:12;3.92;;;2.55;;
32032;SDS011;31720;52.638;9.216;2023-05-07T16:01:14;3.33;;;1.85;;
32032;SDS011;31720;52.638;9.216;2023-05-07T16:04:15;2.45;;;2.17;;
32032;SDS011;31720;52.638;9.216;2023-05-07T16:07:18;4.30;;;2.38;;
32032;SDS011;31720;52.638;9.216;2023-05-07T16:10:19;4.25;;;2.30;;
32032;SDS011;31720;52.638;9.216;2023-05-07T16:13:21;3.10;;;2.20;;
32032;SDS011;31720;52.638;9.216;2023-05-07T16:16:23;3.72;;;2.33;;
32032;SDS011;31720;52.638;9.216;2023-05-07T16:19:28;3.60;;;2.28;;
32032;SDS011;31720;52.638;9.216;2023-05-07T16:22:31;3.42;;;2.38;;
32032;SDS011;31720;52.638;9.216;2023-05-07T16:25:32;3.15;;;2.08;;
32032;SDS011;31720;52.638;9.216;2023-05-07T16:28:34;2.95;;;2.35;;
32032;SDS011;31720;52.638;9.216;2023-05-07T16:31:35;3.83;;;2.60;;
32032;SDS011;31720;52.638;9.216;2023-05-07T16:34:36;3.67;;;2.05;;
32032;SDS011;31720;52.638;9.216;2023-05-07T16:37:40;4.40;;;2.35;;
32032;SDS011;31720;52.638;9.216;2023-05-07T16:40:41;4.13;;;2.28;;
32032;SDS011;31720;52.638;9.216;2023-05-07T16:43:43;4.15;;;2.22;;
32032;SDS011;31720;52.638;9.216;2023-05-07T16:46:44;2.97;;;2.20;;
32032;SDS011;31720;52.638;9.216;2023-05-07T16:49:46;7.40;;;2.60;;
32032;SDS011;31720;52.638;9.216;2023-05-07T16:52:48;3.05;;;2.08;;
32032;SDS011;31720;52.638;9.216;2023-05-07T16:55:50;3.90;;;1.98;;
32032;SDS011;31720;52.638;9.216;2023-05-07T16:58:55;5.55;;;2.45;;
32032;SDS011;31720;52.638;9.216;2023-05-07T17:01:56;3.72;;;2.30;;
32032;SDS011;31720;52.638;9.216;2023-05-07T17:04:58;4.45;;;2.65;;
32032;SDS011;31720;52.638;9.216;2023-05-07T17:08:00;3.28;;;2.50;;
32032;SDS011;31720;52.638;9.216;2023-05-07T17:11:01;4.22;;;2.53;;
32032;SDS011;31720;52.638;9.216;2023-05-07T17:14:03;3.80;;;2.67;;
32032;SDS011;31720;52.638;9.216;2023-05-07T17:17:04;3.97;;;2.35;;
32032;SDS011;31720;52.638;9.216;2023-05-07T17:20:06;3.65;;;2.40;;
32032;SDS011;31720;52.638;9.216;2023-05-07T17:23:09;4.03;;;2.38;;
32032;SDS011;31720;52.638;9.216;2023-05-07T17:26:11;3.38;;;2.40;;
32032;SDS011;31720;52.638;9.216;2023-05-07T17:29:12;4.38;;;2.78;;
32032;SDS011;31720;52.638;9.216;2023-05-07T17:32:14;3.65;;;2.80;;
32032;SDS011;31720;52.638;9.216;2023-05-07T17:35:16;4.78;;;3.78;;
32032;SDS011;31720;52.638;9.216;2023-05-07T17:38:19;6.47;;;2.80;;
32032;SDS011;31720;52.638;9.216;2023-05-07T17:41:20;4.07;;;2.42;;
32032;SDS011;31720;52.638;9.216;2023-05-07T17:44:22;4.07;;;2.40;;
32032;SDS011;31720;52.638;9.216;2023-05-07T17:47:23;3.72;;;2.42;;
32032;SDS011;31720;52.638;9.216;2023-05-07T17:50:25;3.80;;;2.80;;
32032;SDS011;31720;52.638;9.216;2023-05-07T17:53:27;5.93;;;2.50;;
32032;SDS011;31720;52.638;9.216;2023-05-07T17:56:29;5.57;;;2.75;;
32032;SDS011;31720;52.638;9.216;2023-05-07T17:59:30;7.45;;;2.70;;
32032;SDS011;31720;52.638;9.216;2023-05-07T18:02:32;4.13;;;2.53;;
32032;SDS011;31720;52.638;9.216;2023-05-07T18:05:34;4.78;;;2.88;;
32032;SDS011;31720;52.638;9.216;2023-05-07T18:08:37;4.15;;;2.80;;
32032;SDS011;31720;52.638;9.216;2023-05-07T18:11:39;5.05;;;3.08;;
32032;SDS011;31720;52.638;9.216;2023-05-07T18:14:40;4.80;;;2.63;;
32032;SDS011;31720;52.638;9.216;2023-05-07T18:17:42;3.70;;;2.65;;